sensor_id;sensor_type;location;lat;lon;timestamp;temperature;humidity
10231;DHT22;62604;49.432;8.680;2022-09-12T16:42:38;25.10;29.00
10231;DHT22;62604;49.432;8.680;2022-09-12T16:45:06;24.80;32.30
10231;DHT22;62604;49.432;8.680;2022-09-12T16:47:34;24.80;32.00
10231;DHT22;62604;49.432;8.680;2022-09-12T16:50:01;24.70;33.00
10231;DHT22;62604;49.432;8.680;2022-09-12T16:52:28;24.60;35.80
10231;DHT22;62604;49.432;8.680;2022-09-12T16:54:56;24.40;35.70
10231;DHT22;62604;49.432;8.680;2022-09-12T16:57:23;24.30;37.60
10231;DHT22;62604;49.432;8.680;2022-09-12T16:59:52;24.20;39.70
10231;DHT22;62604;49.432;8.680;2022-09-12T17:02:18;24.10;40.90
10231;DHT22;62604;49.432;8.680;2022-09-12T17:04:45;24.00;40.60
10231;DHT22;62604;49.432;8.680;2022-09-12T17:07:13;23.90;41.90
10231;DHT22;62604;49.432;8.680;2022-09-12T17:09:40;23.70;41.90
10231;DHT22;62604;49.432;8.680;2022-09-12T17:12:07;23.50;42.40
10231;DHT22;62604;49.432;8.680;2022-09-12T17:14:34;23.40;43.40
10231;DHT22;62604;49.432;8.680;2022-09-12T17:17:02;23.20;45.30
10231;DHT22;62604;49.432;8.680;2022-09-12T17:19:29;23.10;44.70
10231;DHT22;62604;49.432;8.680;2022-09-12T17:21:57;22.90;45.00
10231;DHT22;62604;49.432;8.680;2022-09-12T17:24:25;22.80;45.80
10231;DHT22;62604;49.432;8.680;2022-09-12T17:26:52;22.60;46.40
10231;DHT22;62604;49.432;8.680;2022-09-12T17:29:19;22.50;47.90
10231;DHT22;62604;49.432;8.680;2022-09-12T17:31:46;22.30;49.10
10231;DHT22;62604;49.432;8.680;2022-09-12T17:34:14;22.20;50.80
10231;DHT22;62604;49.432;8.680;2022-09-12T17:36:44;22.00;52.40
10231;DHT22;62604;49.432;8.680;2022-09-12T17:39:14;21.90;53.40
10231;DHT22;62604;49.432;8.680;2022-09-12T17:41:43;21.70;55.10
10231;DHT22;62604;49.432;8.680;2022-09-12T17:44:11;21.70;57.10
10231;DHT22;62604;49.432;8.680;2022-09-12T17:46:40;21.50;56.70
10231;DHT22;62604;49.432;8.680;2022-09-12T17:49:09;21.40;56.80
10231;DHT22;62604;49.432;8.680;2022-09-12T17:51:39;21.30;58.20
10231;DHT22;62604;49.432;8.680;2022-09-12T17:54:08;21.20;58.90
10231;DHT22;62604;49.432;8.680;2022-09-12T17:56:36;21.10;59.10
10231;DHT22;62604;49.432;8.680;2022-09-12T17:59:05;20.90;60.40
10231;DHT22;62604;49.432;8.680;2022-09-12T18:01:32;20.90;61.40
10231;DHT22;62604;49.432;8.680;2022-09-12T18:04:17;20.70;60.80
10231;DHT22;62604;49.432;8.680;2022-09-12T18:06:46;20.60;61.80
10231;DHT22;62604;49.432;8.680;2022-09-12T18:09:15;20.60;63.30
10231;DHT22;62604;49.432;8.680;2022-09-12T18:11:44;20.50;63.30
10231;DHT22;62604;49.432;8.680;2022-09-12T18:14:11;20.50;64.00
10231;DHT22;62604;49.432;8.680;2022-09-12T18:16:38;20.40;63.70
10231;DHT22;62604;49.432;8.680;2022-09-12T18:19:05;20.40;63.50
10231;DHT22;62604;49.432;8.680;2022-09-12T18:21:32;20.30;64.60
10231;DHT22;62604;49.432;8.680;2022-09-12T18:24:01;20.20;64.00
10231;DHT22;62604;49.432;8.680;2022-09-12T18:26:29;20.20;65.20
10231;DHT22;62604;49.432;8.680;2022-09-12T18:28:56;20.10;64.50
10231;DHT22;62604;49.432;8.680;2022-09-12T18:31:25;20.10;65.00
10231;DHT22;62604;49.432;8.680;2022-09-12T18:33:53;20.00;65.20
10231;DHT22;62604;49.432;8.680;2022-09-12T18:36:20;20.00;66.30
10231;DHT22;62604;49.432;8.680;2022-09-12T18:38:48;19.90;65.40
10231;DHT22;62604;49.432;8.680;2022-09-12T18:41:17;19.90;66.70
10231;DHT22;62604;49.432;8.680;2022-09-12T18:43:45;19.80;65.60
10231;DHT22;62604;49.432;8.680;2022-09-12T18:46:13;19.80;67.20
10231;DHT22;62604;49.432;8.680;2022-09-12T18:48:40;19.80;67.20
10231;DHT22;62604;49.432;8.680;2022-09-12T18:51:09;19.70;67.00
10231;DHT22;62604;49.432;8.680;2022-09-12T18:53:37;19.60;67.00
10231;DHT22;62604;49.432;8.680;2022-09-12T18:56:06;19.60;69.00
10231;DHT22;62604;49.432;8.680;2022-09-12T18:58:35;19.60;67.60
10231;DHT22;62604;49.432;8.680;2022-09-12T19:01:10;19.50;67.00
10231;DHT22;62604;49.432;8.680;2022-09-12T19:03:37;19.60;66.50
10231;DHT22;62604;49.432;8.680;2022-09-12T19:06:08;19.50;67.10
10231;DHT22;62604;49.432;8.680;2022-09-12T19:08:35;19.50;67.10
10231;DHT22;62604;49.432;8.680;2022-09-12T19:11:03;19.50;67.40
10231;DHT22;62604;49.432;8.680;2022-09-12T19:13:30;19.40;67.30
10231;DHT22;62604;49.432;8.680;2022-09-12T19:16:01;19.40;68.80
10231;DHT22;62604;49.432;8.680;2022-09-12T19:18:28;19.40;68.60
10231;DHT22;62604;49.432;8.680;2022-09-12T19:20:56;19.40;68.50
10231;DHT22;62604;49.432;8.680;2022-09-12T19:23:23;19.40;68.20
10231;DHT22;62604;49.432;8.680;2022-09-12T19:25:56;19.40;67.20
10231;DHT22;62604;49.432;8.680;2022-09-12T19:28:24;19.40;67.00
10231;DHT22;62604;49.432;8.680;2022-09-12T19:30:51;19.40;68.50
10231;DHT22;62604;49.432;8.680;2022-09-12T19:33:20;19.40;67.00
10231;DHT22;62604;49.432;8.680;2022-09-12T19:35:47;19.30;68.50
10231;DHT22;62604;49.432;8.680;2022-09-12T19:38:15;19.30;67.10
10231;DHT22;62604;49.432;8.680;2022-09-12T19:40:42;19.30;67.10
10231;DHT22;62604;49.432;8.680;2022-09-12T19:43:09;19.30;66.90
10231;DHT22;62604;49.432;8.680;2022-09-12T19:45:37;19.40;67.50
10231;DHT22;62604;49.432;8.680;2022-09-12T19:48:03;19.30;67.20
10231;DHT22;62604;49.432;8.680;2022-09-12T19:50:32;19.40;66.10
10231;DHT22;62604;49.432;8.680;2022-09-12T19:52:59;19.40;65.30
10231;DHT22;62604;49.432;8.680;2022-09-12T19:55:26;19.40;66.00
10231;DHT22;62604;49.432;8.680;2022-09-12T19:57:53;19.40;65.60
10231;DHT22;62604;49.432;8.680;2022-09-12T20:00:20;19.40;66.80
10231;DHT22;62604;49.432;8.680;2022-09-12T20:02:50;19.30;66.70
10231;DHT22;62604;49.432;8.680;2022-09-12T20:05:18;19.30;68.40
10231;DHT22;62604;49.432;8.680;2022-09-12T20:07:46;19.20;67.90
10231;DHT22;62604;49.432;8.680;2022-09-12T20:10:13;19.20;68.70
10231;DHT22;62604;49.432;8.680;2022-09-12T20:12:41;19.20;70.80
10231;DHT22;62604;49.432;8.680;2022-09-12T20:15:09;19.10;70.00
10231;DHT22;62604;49.432;8.680;2022-09-12T20:17:36;19.10;74.50
10231;DHT22;62604;49.432;8.680;2022-09-12T20:20:05;19.00;71.80
10231;DHT22;62604;49.432;8.680;2022-09-12T20:22:32;19.10;70.60
10231;DHT22;62604;49.432;8.680;2022-09-12T20:25:01;19.00;69.80
10231;DHT22;62604;49.432;8.680;2022-09-12T20:27:27;19.00;70.40
10231;DHT22;62604;49.432;8.680;2022-09-12T20:29:54;19.00;70.40
10231;DHT22;62604;49.432;8.680;2022-09-12T20:32:23;19.00;70.30
10231;DHT22;62604;49.432;8.680;2022-09-12T20:34:50;19.00;70.80
10231;DHT22;62604;49.432;8.680;2022-09-12T20:37:17;19.00;70.30
10231;DHT22;62604;49.432;8.680;2022-09-12T20:39:45;18.90;70.10
10231;DHT22;62604;49.432;8.680;2022-09-12T20:42:13;18.90;70.40
10231;DHT22;62604;49.432;8.680;2022-09-12T20:44:40;18.90;71.80
10231;DHT22;62604;49.432;8.680;2022-09-12T20:47:07;18.80;75.70
10231;DHT22;62604;49.432;8.680;2022-09-12T20:49:35;18.70;81.70
10231;DHT22;62604;49.432;8.680;2022-09-12T20:52:02;18.50;83.60
10231;DHT22;62604;49.432;8.680;2022-09-12T20:54:29;18.40;86.50
10231;DHT22;62604;49.432;8.680;2022-09-12T20:56:56;18.30;87.90
10231;DHT22;62604;49.432;8.680;2022-09-12T20:59:24;18.10;90.30
10231;DHT22;62604;49.432;8.680;2022-09-12T21:01:51;18.00;90.30
10231;DHT22;62604;49.432;8.680;2022-09-12T21:04:18;17.90;90.20
10231;DHT22;62604;49.432;8.680;2022-09-12T21:06:45;18.00;85.60
10231;DHT22;62604;49.432;8.680;2022-09-12T21:09:12;18.10;83.60
10231;DHT22;62604;49.432;8.680;2022-09-12T21:11:39;18.10;84.80
10231;DHT22;62604;49.432;8.680;2022-09-12T21:14:06;18.10;83.00
10231;DHT22;62604;49.432;8.680;2022-09-12T21:16:34;18.10;86.10
10231;DHT22;62604;49.432;8.680;2022-09-12T21:19:04;18.10;88.40
10231;DHT22;62604;49.432;8.680;2022-09-12T21:21:32;18.10;90.00
10231;DHT22;62604;49.432;8.680;2022-09-12T21:23:59;18.00;90.10
10231;DHT22;62604;49.432;8.680;2022-09-12T21:26:27;18.00;86.30
10231;DHT22;62604;49.432;8.680;2022-09-12T21:28:54;18.00;85.20
10231;DHT22;62604;49.432;8.680;2022-09-12T21:31:22;18.10;82.90
10231;DHT22;62604;49.432;8.680;2022-09-12T21:33:51;18.10;86.20
10231;DHT22;62604;49.432;8.680;2022-09-12T21:36:18;18.10;87.90
10231;DHT22;62604;49.432;8.680;2022-09-12T21:38:44;18.10;83.70
10231;DHT22;62604;49.432;8.680;2022-09-12T21:41:12;18.30;81.80
10231;DHT22;62604;49.432;8.680;2022-09-12T21:43:40;18.30;82.30
10231;DHT22;62604;49.432;8.680;2022-09-12T21:46:08;18.40;81.50
10231;DHT22;62604;49.432;8.680;2022-09-12T21:48:35;18.40;83.30
10231;DHT22;62604;49.432;8.680;2022-09-12T21:51:04;18.40;80.90
10231;DHT22;62604;49.432;8.680;2022-09-12T21:53:31;18.50;82.90
10231;DHT22;62604;49.432;8.680;2022-09-12T21:56:03;18.40;85.90
10231;DHT22;62604;49.432;8.680;2022-09-12T21:58:30;18.40;86.10
10231;DHT22;62604;49.432;8.680;2022-09-12T22:00:57;18.30;82.40
10231;DHT22;62604;49.432;8.680;2022-09-12T22:03:25;18.40;81.10
10231;DHT22;62604;49.432;8.680;2022-09-12T22:05:55;18.50;80.30
10231;DHT22;62604;49.432;8.680;2022-09-12T22:08:24;18.60;78.80
10231;DHT22;62604;49.432;8.680;2022-09-12T22:10:51;18.70;79.00
10231;DHT22;62604;49.432;8.680;2022-09-12T22:13:18;18.70;79.20
10231;DHT22;62604;49.432;8.680;2022-09-12T22:15:49;18.70;79.40
10231;DHT22;62604;49.432;8.680;2022-09-12T22:18:16;18.70;79.70
10231;DHT22;62604;49.432;8.680;2022-09-12T22:20:43;18.60;80.30
10231;DHT22;62604;49.432;8.680;2022-09-12T22:23:11;18.50;84.10
10231;DHT22;62604;49.432;8.680;2022-09-12T22:25:54;18.40;83.00
10231;DHT22;62604;49.432;8.680;2022-09-12T22:28:21;18.40;84.60
10231;DHT22;62604;49.432;8.680;2022-09-12T22:30:49;18.40;82.70
10231;DHT22;62604;49.432;8.680;2022-09-12T22:33:16;18.30;84.90
10231;DHT22;62604;49.432;8.680;2022-09-12T22:35:43;18.30;81.10
10231;DHT22;62604;49.432;8.680;2022-09-12T22:38:10;18.30;86.50
10231;DHT22;62604;49.432;8.680;2022-09-12T22:40:37;18.20;84.00
10231;DHT22;62604;49.432;8.680;2022-09-12T22:43:05;18.30;84.40
10231;DHT22;62604;49.432;8.680;2022-09-12T22:45:33;18.50;79.70
10231;DHT22;62604;49.432;8.680;2022-09-12T22:48:00;18.50;83.70
10231;DHT22;62604;49.432;8.680;2022-09-12T22:50:27;18.40;85.90
10231;DHT22;62604;49.432;8.680;2022-09-12T22:52:54;18.30;89.20
10231;DHT22;62604;49.432;8.680;2022-09-12T22:55:21;18.20;90.60
10231;DHT22;62604;49.432;8.680;2022-09-12T22:57:48;18.10;90.90
10231;DHT22;62604;49.432;8.680;2022-09-12T23:00:16;17.90;91.20
10231;DHT22;62604;49.432;8.680;2022-09-12T23:02:44;17.80;91.50
10231;DHT22;62604;49.432;8.680;2022-09-12T23:05:11;17.60;92.00
10231;DHT22;62604;49.432;8.680;2022-09-12T23:07:38;17.50;92.80
10231;DHT22;62604;49.432;8.680;2022-09-12T23:10:06;17.40;93.80
10231;DHT22;62604;49.432;8.680;2022-09-12T23:12:33;17.30;94.20
10231;DHT22;62604;49.432;8.680;2022-09-12T23:14:59;17.30;94.60
10231;DHT22;62604;49.432;8.680;2022-09-12T23:17:28;17.20;95.60
10231;DHT22;62604;49.432;8.680;2022-09-12T23:19:55;17.10;95.50
10231;DHT22;62604;49.432;8.680;2022-09-12T23:22:21;17.10;96.00
10231;DHT22;62604;49.432;8.680;2022-09-12T23:24:48;17.10;96.30
10231;DHT22;62604;49.432;8.680;2022-09-12T23:27:15;17.00;96.30
10231;DHT22;62604;49.432;8.680;2022-09-12T23:29:42;17.10;96.10
10231;DHT22;62604;49.432;8.680;2022-09-12T23:32:09;17.00;97.30
10231;DHT22;62604;49.432;8.680;2022-09-12T23:34:37;17.00;97.20
10231;DHT22;62604;49.432;8.680;2022-09-12T23:37:04;17.00;97.60
10231;DHT22;62604;49.432;8.680;2022-09-12T23:39:31;17.00;98.20
10231;DHT22;62604;49.432;8.680;2022-09-12T23:41:58;17.00;98.80
10231;DHT22;62604;49.432;8.680;2022-09-12T23:44:25;16.90;99.20
10231;DHT22;62604;49.432;8.680;2022-09-12T23:46:52;16.90;99.50
10231;DHT22;62604;49.432;8.680;2022-09-12T23:49:19;16.80;99.90
10231;DHT22;62604;49.432;8.680;2022-09-12T23:51:47;16.70;99.90
10231;DHT22;62604;49.432;8.680;2022-09-12T23:54:14;16.60;99.90
10231;DHT22;62604;49.432;8.680;2022-09-12T23:56:41;16.50;99.90
10231;DHT22;62604;49.432;8.680;2022-09-12T23:59:08;16.40;99.90
